sensor_id;sensor_type;location;lat;lon;timestamp;P1;durP1;ratioP1;P2;durP2;ratioP2
81265;SDS011;70748;52.510;13.410;2023-08-06T00:00:15;10.02;;;7.38;;
81265;SDS011;70748;52.510;13.410;2023-08-06T00:02:41;10.57;;;7.43;;
81265;SDS011;70748;52.510;13.410;2023-08-06T00:05:07;11.40;;;7.38;;
81265;SDS011;70748;52.510;13.410;2023-08-06T00:07:33;10.30;;;7.70;;
81265;SDS011;70748;52.510;13.410;2023-08-06T00:09:58;15.02;;;7.68;;
81265;SDS011;70748;52.510;13.410;2023-08-06T00:12:24;9.93;;;7.63;;
81265;SDS011;70748;52.510;13.410;2023-08-06T00:14:50;11.32;;;7.18;;
81265;SDS011;70748;52.510;13.410;2023-08-06T00:17:16;10.95;;;7.00;;
81265;SDS011;70748;52.510;13.410;2023-08-06T00:19:42;11.93;;;8.05;;
81265;SDS011;70748;52.510;13.410;2023-08-06T00:22:08;14.35;;;7.57;;
81265;SDS011;70748;52.510;13.410;2023-08-06T00:24:34;8.63;;;7.00;;
81265;SDS011;70748;52.510;13.410;2023-08-06T00:26:59;13.32;;;7.22;;
81265;SDS011;70748;52.510;13.410;2023-08-06T00:29:25;9.70;;;7.03;;
81265;SDS011;70748;52.510;13.410;2023-08-06T00:31:51;9.43;;;7.07;;
81265;SDS011;70748;52.510;13.410;2023-08-06T00:34:17;10.88;;;7.57;;
81265;SDS011;70748;52.510;13.410;2023-08-06T00:36:44;9.07;;;6.88;;
81265;SDS011;70748;52.510;13.410;2023-08-06T00:39:10;8.18;;;7.20;;
81265;SDS011;70748;52.510;13.410;2023-08-06T00:41:36;10.43;;;7.25;;
81265;SDS011;70748;52.510;13.410;2023-08-06T00:44:01;13.57;;;7.57;;
81265;SDS011;70748;52.510;13.410;2023-08-06T00:46:27;10.52;;;8.10;;
81265;SDS011;70748;52.510;13.410;2023-08-06T00:48:53;8.75;;;7.35;;
81265;SDS011;70748;52.510;13.410;2023-08-06T00:51:20;10.30;;;7.90;;
81265;SDS011;70748;52.510;13.410;2023-08-06T00:53:47;10.85;;;7.63;;
81265;SDS011;70748;52.510;13.410;2023-08-06T00:56:14;9.40;;;7.50;;
81265;SDS011;70748;52.510;13.410;2023-08-06T00:58:40;12.30;;;8.38;;
81265;SDS011;70748;52.510;13.410;2023-08-06T01:01:06;14.02;;;8.35;;
81265;SDS011;70748;52.510;13.410;2023-08-06T01:03:32;11.25;;;7.50;;
81265;SDS011;70748;52.510;13.410;2023-08-06T01:05:57;11.55;;;7.75;;
81265;SDS011;70748;52.510;13.410;2023-08-06T01:14:02;14.82;;;7.28;;
81265;SDS011;70748;52.510;13.410;2023-08-06T01:16:38;10.13;;;7.38;;
81265;SDS011;70748;52.510;13.410;2023-08-06T01:19:05;10.95;;;7.32;;
81265;SDS011;70748;52.510;13.410;2023-08-06T01:21:42;9.20;;;7.55;;
81265;SDS011;70748;52.510;13.410;2023-08-06T01:24:07;8.95;;;7.47;;
81265;SDS011;70748;52.510;13.410;2023-08-06T01:26:35;11.50;;;7.15;;
81265;SDS011;70748;52.510;13.410;2023-08-06T01:29:56;11.07;;;7.47;;
81265;SDS011;70748;52.510;13.410;2023-08-06T01:32:14;11.13;;;7.72;;
81265;SDS011;70748;52.510;13.410;2023-08-06T01:34:41;11.98;;;7.13;;
81265;SDS011;70748;52.510;13.410;2023-08-06T01:37:09;10.15;;;7.47;;
81265;SDS011;70748;52.510;13.410;2023-08-06T01:39:36;10.55;;;7.57;;
81265;SDS011;70748;52.510;13.410;2023-08-06T01:42:02;10.45;;;7.22;;
81265;SDS011;70748;52.510;13.410;2023-08-06T01:44:27;11.93;;;7.10;;
81265;SDS011;70748;52.510;13.410;2023-08-06T01:46:53;8.35;;;7.15;;
81265;SDS011;70748;52.510;13.410;2023-08-06T01:49:19;10.48;;;7.03;;
81265;SDS011;70748;52.510;13.410;2023-08-06T01:51:45;8.73;;;7.10;;
81265;SDS011;70748;52.510;13.410;2023-08-06T01:54:10;11.68;;;7.70;;
81265;SDS011;70748;52.510;13.410;2023-08-06T01:56:36;8.85;;;7.70;;
81265;SDS011;70748;52.510;13.410;2023-08-06T01:59:02;10.27;;;7.75;;
81265;SDS011;70748;52.510;13.410;2023-08-06T02:01:27;9.82;;;7.30;;
81265;SDS011;70748;52.510;13.410;2023-08-06T02:03:53;12.63;;;7.88;;
81265;SDS011;70748;52.510;13.410;2023-08-06T02:06:19;9.15;;;7.95;;
81265;SDS011;70748;52.510;13.410;2023-08-06T02:08:44;9.80;;;8.70;;
81265;SDS011;70748;52.510;13.410;2023-08-06T02:11:10;9.93;;;7.55;;
81265;SDS011;70748;52.510;13.410;2023-08-06T02:13:35;13.18;;;8.77;;
81265;SDS011;70748;52.510;13.410;2023-08-06T02:16:01;9.15;;;8.25;;
81265;SDS011;70748;52.510;13.410;2023-08-06T02:18:27;13.45;;;8.60;;
81265;SDS011;70748;52.510;13.410;2023-08-06T02:20:56;13.13;;;9.32;;
81265;SDS011;70748;52.510;13.410;2023-08-06T02:23:23;9.95;;;8.95;;
81265;SDS011;70748;52.510;13.410;2023-08-06T02:25:56;12.40;;;9.05;;
81265;SDS011;70748;52.510;13.410;2023-08-06T02:28:23;11.10;;;9.25;;
81265;SDS011;70748;52.510;13.410;2023-08-06T02:30:51;11.13;;;9.55;;
81265;SDS011;70748;52.510;13.410;2023-08-06T02:35:42;11.90;;;9.13;;
81265;SDS011;70748;52.510;13.410;2023-08-06T02:38:08;10.43;;;9.27;;
81265;SDS011;70748;52.510;13.410;2023-08-06T02:40:34;12.82;;;9.63;;
81265;SDS011;70748;52.510;13.410;2023-08-06T02:42:59;11.88;;;9.98;;
81265;SDS011;70748;52.510;13.410;2023-08-06T02:45:25;11.82;;;9.52;;
81265;SDS011;70748;52.510;13.410;2023-08-06T02:47:51;12.07;;;9.70;;
81265;SDS011;70748;52.510;13.410;2023-08-06T02:50:16;10.95;;;9.73;;
81265;SDS011;70748;52.510;13.410;2023-08-06T02:52:42;13.18;;;9.50;;
81265;SDS011;70748;52.510;13.410;2023-08-06T02:55:08;11.40;;;9.63;;
81265;SDS011;70748;52.510;13.410;2023-08-06T02:57:33;10.75;;;9.65;;
81265;SDS011;70748;52.510;13.410;2023-08-06T02:59:59;10.00;;;8.80;;
81265;SDS011;70748;52.510;13.410;2023-08-06T03:02:24;11.27;;;9.02;;
81265;SDS011;70748;52.510;13.410;2023-08-06T03:04:50;12.40;;;8.85;;
81265;SDS011;70748;52.510;13.410;2023-08-06T03:07:16;9.88;;;8.73;;
81265;SDS011;70748;52.510;13.410;2023-08-06T03:09:41;9.93;;;8.93;;
81265;SDS011;70748;52.510;13.410;2023-08-06T03:12:07;13.52;;;8.70;;
81265;SDS011;70748;52.510;13.410;2023-08-06T03:14:33;8.35;;;7.18;;
81265;SDS011;70748;52.510;13.410;2023-08-06T03:16:59;9.00;;;8.10;;
81265;SDS011;70748;52.510;13.410;2023-08-06T03:19:24;9.15;;;7.82;;
81265;SDS011;70748;52.510;13.410;2023-08-06T03:21:50;9.90;;;8.23;;
81265;SDS011;70748;52.510;13.410;2023-08-06T03:24:15;10.07;;;7.63;;
81265;SDS011;70748;52.510;13.410;2023-08-06T03:26:41;9.30;;;7.97;;
81265;SDS011;70748;52.510;13.410;2023-08-06T03:29:07;12.18;;;8.07;;
81265;SDS011;70748;52.510;13.410;2023-08-06T03:31:32;9.80;;;8.32;;
81265;SDS011;70748;52.510;13.410;2023-08-06T03:33:58;11.43;;;7.47;;
81265;SDS011;70748;52.510;13.410;2023-08-06T03:36:23;10.55;;;7.00;;
81265;SDS011;70748;52.510;13.410;2023-08-06T03:38:49;8.77;;;7.85;;
81265;SDS011;70748;52.510;13.410;2023-08-06T03:41:15;10.45;;;8.38;;
81265;SDS011;70748;52.510;13.410;2023-08-06T03:43:40;11.45;;;8.25;;
81265;SDS011;70748;52.510;13.410;2023-08-06T03:46:06;15.57;;;9.20;;
81265;SDS011;70748;52.510;13.410;2023-08-06T03:48:32;11.70;;;7.78;;
81265;SDS011;70748;52.510;13.410;2023-08-06T03:50:57;12.38;;;8.50;;
81265;SDS011;70748;52.510;13.410;2023-08-06T03:53:25;9.90;;;8.30;;
81265;SDS011;70748;52.510;13.410;2023-08-06T03:55:51;9.18;;;7.55;;
81265;SDS011;70748;52.510;13.410;2023-08-06T03:58:17;9.80;;;8.40;;
81265;SDS011;70748;52.510;13.410;2023-08-06T04:00:42;10.27;;;8.60;;
81265;SDS011;70748;52.510;13.410;2023-08-06T04:03:08;11.70;;;8.23;;
81265;SDS011;70748;52.510;13.410;2023-08-06T04:05:33;9.45;;;8.55;;
81265;SDS011;70748;52.510;13.410;2023-08-06T04:07:59;11.40;;;8.77;;
81265;SDS011;70748;52.510;13.410;2023-08-06T04:10:25;14.35;;;9.48;;
81265;SDS011;70748;52.510;13.410;2023-08-06T04:12:50;11.95;;;10.18;;
81265;SDS011;70748;52.510;13.410;2023-08-06T04:15:16;15.05;;;8.95;;
81265;SDS011;70748;52.510;13.410;2023-08-06T04:17:42;10.63;;;9.30;;
81265;SDS011;70748;52.510;13.410;2023-08-06T04:20:08;11.23;;;9.25;;
81265;SDS011;70748;52.510;13.410;2023-08-06T04:22:33;12.50;;;9.57;;
81265;SDS011;70748;52.510;13.410;2023-08-06T04:24:59;10.85;;;8.80;;
81265;SDS011;70748;52.510;13.410;2023-08-06T04:27:25;15.02;;;9.98;;
81265;SDS011;70748;52.510;13.410;2023-08-06T04:29:50;10.73;;;8.68;;
81265;SDS011;70748;52.510;13.410;2023-08-06T04:32:16;10.00;;;9.00;;
81265;SDS011;70748;52.510;13.410;2023-08-06T04:34:44;10.20;;;8.80;;
81265;SDS011;70748;52.510;13.410;2023-08-06T04:37:10;11.00;;;8.95;;
81265;SDS011;70748;52.510;13.410;2023-08-06T04:39:35;12.13;;;9.05;;
81265;SDS011;70748;52.510;13.410;2023-08-06T04:42:01;11.65;;;8.68;;
81265;SDS011;70748;52.510;13.410;2023-08-06T04:44:27;12.05;;;9.18;;
81265;SDS011;70748;52.510;13.410;2023-08-06T04:46:52;10.93;;;8.63;;
81265;SDS011;70748;52.510;13.410;2023-08-06T04:49:20;9.05;;;8.10;;
81265;SDS011;70748;52.510;13.410;2023-08-06T04:51:45;12.40;;;8.48;;
81265;SDS011;70748;52.510;13.410;2023-08-06T04:54:11;9.35;;;8.35;;
81265;SDS011;70748;52.510;13.410;2023-08-06T04:56:37;10.07;;;7.85;;
81265;SDS011;70748;52.510;13.410;2023-08-06T04:59:03;9.93;;;8.05;;
81265;SDS011;70748;52.510;13.410;2023-08-06T05:01:28;10.43;;;8.00;;
81265;SDS011;70748;52.510;13.410;2023-08-06T05:03:54;11.43;;;8.40;;
81265;SDS011;70748;52.510;13.410;2023-08-06T05:06:20;9.18;;;8.05;;
81265;SDS011;70748;52.510;13.410;2023-08-06T05:08:46;11.85;;;7.70;;
81265;SDS011;70748;52.510;13.410;2023-08-06T05:11:12;11.00;;;8.48;;
81265;SDS011;70748;52.510;13.410;2023-08-06T05:13:38;12.05;;;8.60;;
81265;SDS011;70748;52.510;13.410;2023-08-06T05:16:03;10.40;;;8.38;;
81265;SDS011;70748;52.510;13.410;2023-08-06T05:18:29;8.20;;;6.95;;
81265;SDS011;70748;52.510;13.410;2023-08-06T05:20:55;9.90;;;6.43;;
81265;SDS011;70748;52.510;13.410;2023-08-06T05:23:22;10.50;;;7.20;;
81265;SDS011;70748;52.510;13.410;2023-08-06T05:25:47;7.30;;;6.47;;
81265;SDS011;70748;52.510;13.410;2023-08-06T05:28:13;8.48;;;6.55;;
81265;SDS011;70748;52.510;13.410;2023-08-06T05:30:39;7.10;;;6.35;;
81265;SDS011;70748;52.510;13.410;2023-08-06T05:33:05;7.32;;;5.95;;
81265;SDS011;70748;52.510;13.410;2023-08-06T05:35:31;7.97;;;6.32;;
81265;SDS011;70748;52.510;13.410;2023-08-06T05:37:57;7.88;;;5.70;;
81265;SDS011;70748;52.510;13.410;2023-08-06T05:40:22;9.63;;;6.40;;
81265;SDS011;70748;52.510;13.410;2023-08-06T05:42:50;6.88;;;5.55;;
81265;SDS011;70748;52.510;13.410;2023-08-06T05:45:16;6.70;;;5.80;;
81265;SDS011;70748;52.510;13.410;2023-08-06T05:47:43;7.75;;;6.07;;
81265;SDS011;70748;52.510;13.410;2023-08-06T05:50:08;6.90;;;5.80;;
81265;SDS011;70748;52.510;13.410;2023-08-06T05:52:34;9.35;;;6.20;;
81265;SDS011;70748;52.510;13.410;2023-08-06T05:55:00;7.60;;;5.80;;
81265;SDS011;70748;52.510;13.410;2023-08-06T05:57:25;7.75;;;6.00;;
81265;SDS011;70748;52.510;13.410;2023-08-06T05:59:51;9.98;;;6.40;;
81265;SDS011;70748;52.510;13.410;2023-08-06T06:02:16;9.95;;;7.05;;
81265;SDS011;70748;52.510;13.410;2023-08-06T06:04:43;7.57;;;6.82;;
81265;SDS011;70748;52.510;13.410;2023-08-06T06:07:09;6.57;;;5.88;;
81265;SDS011;70748;52.510;13.410;2023-08-06T06:09:35;8.20;;;6.22;;
81265;SDS011;70748;52.510;13.410;2023-08-06T06:12:00;7.90;;;6.07;;
81265;SDS011;70748;52.510;13.410;2023-08-06T06:14:26;5.75;;;5.15;;
81265;SDS011;70748;52.510;13.410;2023-08-06T06:16:52;9.18;;;5.75;;
81265;SDS011;70748;52.510;13.410;2023-08-06T06:19:18;8.75;;;6.68;;
81265;SDS011;70748;52.510;13.410;2023-08-06T06:21:43;5.75;;;5.10;;
81265;SDS011;70748;52.510;13.410;2023-08-06T06:24:09;6.72;;;6.13;;
81265;SDS011;70748;52.510;13.410;2023-08-06T06:26:35;8.18;;;6.45;;
81265;SDS011;70748;52.510;13.410;2023-08-06T06:29:00;10.63;;;6.35;;
81265;SDS011;70748;52.510;13.410;2023-08-06T06:31:26;7.70;;;6.05;;
81265;SDS011;70748;52.510;13.410;2023-08-06T06:33:52;7.40;;;6.15;;
81265;SDS011;70748;52.510;13.410;2023-08-06T06:36:19;8.57;;;6.70;;
81265;SDS011;70748;52.510;13.410;2023-08-06T06:38:45;7.28;;;5.82;;
81265;SDS011;70748;52.510;13.410;2023-08-06T06:41:11;8.45;;;6.40;;
81265;SDS011;70748;52.510;13.410;2023-08-06T06:43:36;9.13;;;7.00;;
81265;SDS011;70748;52.510;13.410;2023-08-06T06:46:05;7.65;;;6.47;;
81265;SDS011;70748;52.510;13.410;2023-08-06T06:48:32;7.95;;;6.45;;
81265;SDS011;70748;52.510;13.410;2023-08-06T06:50:58;7.93;;;6.80;;
81265;SDS011;70748;52.510;13.410;2023-08-06T06:53:24;8.90;;;7.50;;
81265;SDS011;70748;52.510;13.410;2023-08-06T06:56:02;8.73;;;7.13;;
81265;SDS011;70748;52.510;13.410;2023-08-06T06:58:29;7.55;;;6.60;;
81265;SDS011;70748;52.510;13.410;2023-08-06T07:00:55;8.90;;;7.10;;
81265;SDS011;70748;52.510;13.410;2023-08-06T07:03:21;7.60;;;6.68;;
81265;SDS011;70748;52.510;13.410;2023-08-06T07:05:47;8.40;;;7.60;;
81265;SDS011;70748;52.510;13.410;2023-08-06T07:08:13;6.72;;;4.90;;
81265;SDS011;70748;52.510;13.410;2023-08-06T07:10:40;8.88;;;7.15;;
81265;SDS011;70748;52.510;13.410;2023-08-06T07:13:06;7.60;;;6.22;;
81265;SDS011;70748;52.510;13.410;2023-08-06T07:15:31;6.55;;;5.90;;
81265;SDS011;70748;52.510;13.410;2023-08-06T07:17:57;7.72;;;5.45;;
81265;SDS011;70748;52.510;13.410;2023-08-06T07:20:23;7.78;;;6.53;;
81265;SDS011;70748;52.510;13.410;2023-08-06T07:22:48;6.72;;;5.80;;
81265;SDS011;70748;52.510;13.410;2023-08-06T07:25:15;9.50;;;6.20;;
81265;SDS011;70748;52.510;13.410;2023-08-06T07:27:41;7.13;;;5.97;;
81265;SDS011;70748;52.510;13.410;2023-08-06T07:30:07;6.65;;;5.95;;
81265;SDS011;70748;52.510;13.410;2023-08-06T07:32:33;8.02;;;6.90;;
81265;SDS011;70748;52.510;13.410;2023-08-06T07:34:58;9.80;;;6.72;;
81265;SDS011;70748;52.510;13.410;2023-08-06T07:37:26;8.27;;;6.72;;
81265;SDS011;70748;52.510;13.410;2023-08-06T07:39:55;12.57;;;7.68;;
81265;SDS011;70748;52.510;13.410;2023-08-06T07:42:21;8.40;;;6.50;;
81265;SDS011;70748;52.510;13.410;2023-08-06T07:44:54;9.00;;;6.50;;
81265;SDS011;70748;52.510;13.410;2023-08-06T07:47:21;9.52;;;7.18;;
81265;SDS011;70748;52.510;13.410;2023-08-06T07:49:46;11.20;;;6.65;;
81265;SDS011;70748;52.510;13.410;2023-08-06T07:52:12;9.68;;;6.25;;
81265;SDS011;70748;52.510;13.410;2023-08-06T07:54:38;8.32;;;6.72;;
81265;SDS011;70748;52.510;13.410;2023-08-06T07:57:04;7.35;;;6.60;;
81265;SDS011;70748;52.510;13.410;2023-08-06T07:59:30;9.88;;;6.53;;
81265;SDS011;70748;52.510;13.410;2023-08-06T08:01:56;9.45;;;6.65;;
81265;SDS011;70748;52.510;13.410;2023-08-06T08:04:21;7.55;;;6.68;;
81265;SDS011;70748;52.510;13.410;2023-08-06T08:06:48;7.93;;;6.40;;
81265;SDS011;70748;52.510;13.410;2023-08-06T08:09:14;8.25;;;6.68;;
81265;SDS011;70748;52.510;13.410;2023-08-06T08:11:40;10.20;;;6.60;;
81265;SDS011;70748;52.510;13.410;2023-08-06T08:14:07;10.75;;;7.40;;
81265;SDS011;70748;52.510;13.410;2023-08-06T08:16:33;10.23;;;7.38;;
81265;SDS011;70748;52.510;13.410;2023-08-06T08:18:58;8.27;;;7.13;;
81265;SDS011;70748;52.510;13.410;2023-08-06T08:21:24;8.95;;;7.68;;
81265;SDS011;70748;52.510;13.410;2023-08-06T08:23:50;9.52;;;7.78;;
81265;SDS011;70748;52.510;13.410;2023-08-06T08:26:16;7.47;;;6.78;;
81265;SDS011;70748;52.510;13.410;2023-08-06T08:28:42;12.98;;;7.68;;
81265;SDS011;70748;52.510;13.410;2023-08-06T08:31:08;8.05;;;6.63;;
81265;SDS011;70748;52.510;13.410;2023-08-06T08:33:34;7.50;;;6.45;;
81265;SDS011;70748;52.510;13.410;2023-08-06T08:36:00;12.10;;;7.95;;
81265;SDS011;70748;52.510;13.410;2023-08-06T08:38:26;10.77;;;7.40;;
81265;SDS011;70748;52.510;13.410;2023-08-06T08:40:51;9.43;;;6.90;;
81265;SDS011;70748;52.510;13.410;2023-08-06T08:43:22;11.13;;;7.22;;
81265;SDS011;70748;52.510;13.410;2023-08-06T08:45:51;8.90;;;7.35;;
81265;SDS011;70748;52.510;13.410;2023-08-06T08:48:20;10.55;;;8.02;;
81265;SDS011;70748;52.510;13.410;2023-08-06T08:50:48;9.10;;;8.20;;
81265;SDS011;70748;52.510;13.410;2023-08-06T08:53:15;10.52;;;8.80;;
81265;SDS011;70748;52.510;13.410;2023-08-06T08:55:46;11.10;;;8.10;;
81265;SDS011;70748;52.510;13.410;2023-08-06T08:58:14;10.57;;;8.70;;
81265;SDS011;70748;52.510;13.410;2023-08-06T09:00:41;9.77;;;7.80;;
81265;SDS011;70748;52.510;13.410;2023-08-06T09:03:07;12.02;;;9.45;;
81265;SDS011;70748;52.510;13.410;2023-08-06T09:05:33;10.93;;;9.23;;
81265;SDS011;70748;52.510;13.410;2023-08-06T09:08:02;10.68;;;8.30;;
81265;SDS011;70748;52.510;13.410;2023-08-06T09:10:29;11.43;;;8.93;;
81265;SDS011;70748;52.510;13.410;2023-08-06T09:12:55;13.65;;;8.63;;
81265;SDS011;70748;52.510;13.410;2023-08-06T09:15:26;10.73;;;9.23;;
81265;SDS011;70748;52.510;13.410;2023-08-06T09:17:52;9.98;;;8.85;;
81265;SDS011;70748;52.510;13.410;2023-08-06T09:20:18;10.52;;;8.38;;
81265;SDS011;70748;52.510;13.410;2023-08-06T09:22:44;13.85;;;9.65;;
81265;SDS011;70748;52.510;13.410;2023-08-06T09:25:10;11.15;;;9.30;;
81265;SDS011;70748;52.510;13.410;2023-08-06T09:27:38;12.52;;;9.85;;
81265;SDS011;70748;52.510;13.410;2023-08-06T09:30:05;10.43;;;9.40;;
81265;SDS011;70748;52.510;13.410;2023-08-06T09:32:47;10.60;;;9.50;;
81265;SDS011;70748;52.510;13.410;2023-08-06T09:35:16;10.38;;;9.18;;
81265;SDS011;70748;52.510;13.410;2023-08-06T09:37:43;11.70;;;9.63;;
81265;SDS011;70748;52.510;13.410;2023-08-06T09:42:57;10.43;;;9.32;;
81265;SDS011;70748;52.510;13.410;2023-08-06T09:45:23;11.43;;;9.63;;
81265;SDS011;70748;52.510;13.410;2023-08-06T09:47:56;10.23;;;9.13;;
81265;SDS011;70748;52.510;13.410;2023-08-06T09:50:22;10.02;;;8.55;;
81265;SDS011;70748;52.510;13.410;2023-08-06T09:52:51;12.63;;;8.60;;
81265;SDS011;70748;52.510;13.410;2023-08-06T09:55:17;9.95;;;8.95;;
81265;SDS011;70748;52.510;13.410;2023-08-06T09:57:44;11.48;;;9.68;;
81265;SDS011;70748;52.510;13.410;2023-08-06T10:00:10;14.60;;;9.40;;
81265;SDS011;70748;52.510;13.410;2023-08-06T10:02:39;12.10;;;10.30;;
81265;SDS011;70748;52.510;13.410;2023-08-06T10:05:08;11.30;;;8.63;;
81265;SDS011;70748;52.510;13.410;2023-08-06T10:07:34;11.70;;;9.13;;
81265;SDS011;70748;52.510;13.410;2023-08-06T10:10:00;9.63;;;8.73;;
81265;SDS011;70748;52.510;13.410;2023-08-06T10:12:32;10.80;;;9.68;;
81265;SDS011;70748;52.510;13.410;2023-08-06T10:15:01;10.07;;;9.10;;
81265;SDS011;70748;52.510;13.410;2023-08-06T10:17:31;10.40;;;8.68;;
81265;SDS011;70748;52.510;13.410;2023-08-06T10:19:58;10.35;;;9.32;;
81265;SDS011;70748;52.510;13.410;2023-08-06T10:22:24;10.48;;;9.02;;
81265;SDS011;70748;52.510;13.410;2023-08-06T10:24:53;11.95;;;10.20;;
81265;SDS011;70748;52.510;13.410;2023-08-06T10:32:49;8.70;;;6.47;;
81265;SDS011;70748;52.510;13.410;2023-08-06T10:35:48;10.32;;;6.22;;
81265;SDS011;70748;52.510;13.410;2023-08-06T10:38:21;6.32;;;5.72;;
81265;SDS011;70748;52.510;13.410;2023-08-06T10:43:26;7.03;;;6.32;;
81265;SDS011;70748;52.510;13.410;2023-08-06T10:45:52;8.15;;;6.07;;
81265;SDS011;70748;52.510;13.410;2023-08-06T10:48:34;8.25;;;5.40;;
81265;SDS011;70748;52.510;13.410;2023-08-06T10:51:05;8.57;;;5.38;;
81265;SDS011;70748;52.510;13.410;2023-08-06T10:53:35;7.13;;;5.22;;
81265;SDS011;70748;52.510;13.410;2023-08-06T10:56:01;6.70;;;6.00;;
81265;SDS011;70748;52.510;13.410;2023-08-06T10:58:36;7.22;;;6.18;;
81265;SDS011;70748;52.510;13.410;2023-08-06T11:01:02;9.00;;;6.85;;
81265;SDS011;70748;52.510;13.410;2023-08-06T11:03:28;8.23;;;7.00;;
81265;SDS011;70748;52.510;13.410;2023-08-06T11:05:54;9.15;;;7.40;;
81265;SDS011;70748;52.510;13.410;2023-08-06T11:08:26;8.73;;;7.25;;
81265;SDS011;70748;52.510;13.410;2023-08-06T11:10:52;8.10;;;6.90;;
81265;SDS011;70748;52.510;13.410;2023-08-06T11:13:18;7.93;;;6.55;;
81265;SDS011;70748;52.510;13.410;2023-08-06T11:15:44;7.78;;;6.60;;
81265;SDS011;70748;52.510;13.410;2023-08-06T11:18:10;7.43;;;4.75;;
81265;SDS011;70748;52.510;13.410;2023-08-06T11:20:36;7.65;;;4.93;;
81265;SDS011;70748;52.510;13.410;2023-08-06T11:23:02;6.03;;;4.82;;
81265;SDS011;70748;52.510;13.410;2023-08-06T11:25:29;6.90;;;5.45;;
81265;SDS011;70748;52.510;13.410;2023-08-06T11:27:55;6.68;;;5.70;;
81265;SDS011;70748;52.510;13.410;2023-08-06T11:30:20;8.82;;;5.20;;
81265;SDS011;70748;52.510;13.410;2023-08-06T11:32:47;7.43;;;5.57;;
81265;SDS011;70748;52.510;13.410;2023-08-06T11:35:13;7.00;;;5.47;;
81265;SDS011;70748;52.510;13.410;2023-08-06T11:37:43;5.75;;;5.15;;
81265;SDS011;70748;52.510;13.410;2023-08-06T11:40:10;8.15;;;5.13;;
81265;SDS011;70748;52.510;13.410;2023-08-06T11:42:37;6.05;;;4.70;;
81265;SDS011;70748;52.510;13.410;2023-08-06T11:45:03;6.15;;;4.10;;
81265;SDS011;70748;52.510;13.410;2023-08-06T11:47:29;8.38;;;4.90;;
81265;SDS011;70748;52.510;13.410;2023-08-06T11:49:58;7.03;;;5.35;;
81265;SDS011;70748;52.510;13.410;2023-08-06T11:52:24;6.75;;;5.10;;
81265;SDS011;70748;52.510;13.410;2023-08-06T11:55:06;5.53;;;5.03;;
81265;SDS011;70748;52.510;13.410;2023-08-06T11:57:35;7.22;;;4.57;;
81265;SDS011;70748;52.510;13.410;2023-08-06T12:00:09;8.20;;;5.00;;
81265;SDS011;70748;52.510;13.410;2023-08-06T12:02:38;5.65;;;5.05;;
81265;SDS011;70748;52.510;13.410;2023-08-06T12:07:37;7.57;;;5.50;;
81265;SDS011;70748;52.510;13.410;2023-08-06T12:10:07;10.93;;;5.80;;
81265;SDS011;70748;52.510;13.410;2023-08-06T12:12:36;7.32;;;6.05;;
81265;SDS011;70748;52.510;13.410;2023-08-06T12:15:02;7.43;;;5.90;;
81265;SDS011;70748;52.510;13.410;2023-08-06T12:17:29;8.77;;;5.85;;
81265;SDS011;70748;52.510;13.410;2023-08-06T12:19:54;7.30;;;6.38;;
81265;SDS011;70748;52.510;13.410;2023-08-06T12:22:20;10.77;;;6.38;;
81265;SDS011;70748;52.510;13.410;2023-08-06T12:24:46;8.75;;;6.70;;
81265;SDS011;70748;52.510;13.410;2023-08-06T12:27:13;11.65;;;6.95;;
81265;SDS011;70748;52.510;13.410;2023-08-06T12:29:40;7.93;;;6.88;;
81265;SDS011;70748;52.510;13.410;2023-08-06T12:32:11;8.25;;;6.90;;
81265;SDS011;70748;52.510;13.410;2023-08-06T12:34:40;8.43;;;7.00;;
81265;SDS011;70748;52.510;13.410;2023-08-06T12:37:07;7.97;;;7.18;;
81265;SDS011;70748;52.510;13.410;2023-08-06T12:39:37;8.63;;;7.72;;
81265;SDS011;70748;52.510;13.410;2023-08-06T12:42:03;8.77;;;7.80;;
81265;SDS011;70748;52.510;13.410;2023-08-06T12:44:30;13.15;;;8.27;;
81265;SDS011;70748;52.510;13.410;2023-08-06T12:46:56;12.45;;;7.72;;
81265;SDS011;70748;52.510;13.410;2023-08-06T12:49:22;10.48;;;8.18;;
81265;SDS011;70748;52.510;13.410;2023-08-06T12:51:50;10.82;;;8.43;;
81265;SDS011;70748;52.510;13.410;2023-08-06T12:54:19;10.52;;;8.93;;
81265;SDS011;70748;52.510;13.410;2023-08-06T12:56:45;8.98;;;7.43;;
81265;SDS011;70748;52.510;13.410;2023-08-06T12:59:13;12.02;;;7.90;;
81265;SDS011;70748;52.510;13.410;2023-08-06T13:01:42;11.35;;;9.13;;
81265;SDS011;70748;52.510;13.410;2023-08-06T13:04:08;9.40;;;8.02;;
81265;SDS011;70748;52.510;13.410;2023-08-06T13:06:34;10.38;;;7.80;;
81265;SDS011;70748;52.510;13.410;2023-08-06T13:09:10;8.93;;;7.63;;
81265;SDS011;70748;52.510;13.410;2023-08-06T13:11:37;10.88;;;8.45;;
81265;SDS011;70748;52.510;13.410;2023-08-06T13:14:07;9.50;;;8.32;;
81265;SDS011;70748;52.510;13.410;2023-08-06T13:16:34;12.98;;;8.55;;
81265;SDS011;70748;52.510;13.410;2023-08-06T13:19:01;10.00;;;8.63;;
81265;SDS011;70748;52.510;13.410;2023-08-06T13:21:31;11.90;;;8.70;;
81265;SDS011;70748;52.510;13.410;2023-08-06T13:24:01;11.07;;;8.70;;
81265;SDS011;70748;52.510;13.410;2023-08-06T13:26:30;10.32;;;8.52;;
81265;SDS011;70748;52.510;13.410;2023-08-06T13:28:57;10.45;;;8.25;;
81265;SDS011;70748;52.510;13.410;2023-08-06T13:31:23;13.30;;;8.68;;
81265;SDS011;70748;52.510;13.410;2023-08-06T13:33:50;14.07;;;9.10;;
81265;SDS011;70748;52.510;13.410;2023-08-06T13:36:16;12.20;;;8.85;;
81265;SDS011;70748;52.510;13.410;2023-08-06T13:38:42;11.85;;;9.10;;
81265;SDS011;70748;52.510;13.410;2023-08-06T13:41:08;10.75;;;9.18;;
81265;SDS011;70748;52.510;13.410;2023-08-06T13:43:33;15.30;;;10.05;;
81265;SDS011;70748;52.510;13.410;2023-08-06T13:45:59;12.13;;;10.02;;
81265;SDS011;70748;52.510;13.410;2023-08-06T13:48:25;10.52;;;8.65;;
81265;SDS011;70748;52.510;13.410;2023-08-06T13:50:50;11.10;;;8.73;;
81265;SDS011;70748;52.510;13.410;2023-08-06T13:53:16;12.70;;;9.50;;
81265;SDS011;70748;52.510;13.410;2023-08-06T13:55:42;12.00;;;8.98;;
81265;SDS011;70748;52.510;13.410;2023-08-06T13:58:08;13.10;;;8.75;;
81265;SDS011;70748;52.510;13.410;2023-08-06T14:00:33;12.10;;;9.30;;
81265;SDS011;70748;52.510;13.410;2023-08-06T14:03:00;11.85;;;10.15;;
81265;SDS011;70748;52.510;13.410;2023-08-06T14:05:26;22.65;;;9.07;;
81265;SDS011;70748;52.510;13.410;2023-08-06T14:07:52;13.50;;;9.50;;
81265;SDS011;70748;52.510;13.410;2023-08-06T14:10:18;14.70;;;9.90;;
81265;SDS011;70748;52.510;13.410;2023-08-06T14:12:43;15.40;;;9.38;;
81265;SDS011;70748;52.510;13.410;2023-08-06T14:15:10;12.05;;;10.68;;
81265;SDS011;70748;52.510;13.410;2023-08-06T14:17:36;13.48;;;10.35;;
81265;SDS011;70748;52.510;13.410;2023-08-06T14:20:01;10.52;;;8.48;;
81265;SDS011;70748;52.510;13.410;2023-08-06T14:22:29;12.43;;;8.15;;
81265;SDS011;70748;52.510;13.410;2023-08-06T14:24:56;11.05;;;9.23;;
81265;SDS011;70748;52.510;13.410;2023-08-06T14:27:22;12.57;;;8.18;;
81265;SDS011;70748;52.510;13.410;2023-08-06T14:29:48;11.57;;;8.88;;
81265;SDS011;70748;52.510;13.410;2023-08-06T14:32:14;10.93;;;8.77;;
81265;SDS011;70748;52.510;13.410;2023-08-06T14:37:08;9.98;;;6.90;;
81265;SDS011;70748;52.510;13.410;2023-08-06T14:39:34;14.60;;;8.35;;
81265;SDS011;70748;52.510;13.410;2023-08-06T14:42:00;11.15;;;9.10;;
81265;SDS011;70748;52.510;13.410;2023-08-06T14:44:25;10.75;;;8.57;;
81265;SDS011;70748;52.510;13.410;2023-08-06T14:46:51;12.55;;;7.97;;
81265;SDS011;70748;52.510;13.410;2023-08-06T14:49:16;12.10;;;7.25;;